sensor_id;sensor_type;location;lat;lon;timestamp;P1;durP1;ratioP1;P2;durP2;ratioP2
15944;SDS011;30172;48.832;8.732;2022-09-01T00:01:51;11.93;;;10.73;;
15944;SDS011;30172;48.832;8.732;2022-09-01T00:04:21;12.70;;;11.35;;
15944;SDS011;30172;48.832;8.732;2022-09-01T00:06:49;12.90;;;11.57;;
15944;SDS011;30172;48.832;8.732;2022-09-01T00:09:17;16.55;;;11.75;;
15944;SDS011;30172;48.832;8.732;2022-09-01T00:11:45;13.82;;;12.35;;
15944;SDS011;30172;48.832;8.732;2022-09-01T00:14:11;13.88;;;12.23;;
15944;SDS011;30172;48.832;8.732;2022-09-01T00:16:37;14.38;;;13.05;;
15944;SDS011;30172;48.832;8.732;2022-09-01T00:19:03;13.88;;;12.40;;
15944;SDS011;30172;48.832;8.732;2022-09-01T00:21:31;14.98;;;12.77;;
15944;SDS011;30172;48.832;8.732;2022-09-01T00:24:02;13.02;;;11.73;;
15944;SDS011;30172;48.832;8.732;2022-09-01T00:26:27;16.52;;;11.80;;
15944;SDS011;30172;48.832;8.732;2022-09-01T00:28:53;15.77;;;12.82;;
15944;SDS011;30172;48.832;8.732;2022-09-01T00:31:19;15.15;;;13.00;;
15944;SDS011;30172;48.832;8.732;2022-09-01T00:33:45;14.68;;;13.10;;
15944;SDS011;30172;48.832;8.732;2022-09-01T00:36:11;14.02;;;12.57;;
15944;SDS011;30172;48.832;8.732;2022-09-01T00:38:36;15.18;;;13.27;;
15944;SDS011;30172;48.832;8.732;2022-09-01T00:41:02;13.70;;;12.30;;
15944;SDS011;30172;48.832;8.732;2022-09-01T00:46:02;14.55;;;12.15;;
15944;SDS011;30172;48.832;8.732;2022-09-01T00:48:28;14.18;;;12.63;;
15944;SDS011;30172;48.832;8.732;2022-09-01T00:50:53;14.13;;;12.65;;
15944;SDS011;30172;48.832;8.732;2022-09-01T00:53:19;12.98;;;11.70;;
15944;SDS011;30172;48.832;8.732;2022-09-01T00:55:44;14.98;;;12.07;;
15944;SDS011;30172;48.832;8.732;2022-09-01T00:58:09;17.92;;;15.27;;
15944;SDS011;30172;48.832;8.732;2022-09-01T01:00:36;14.60;;;13.10;;
15944;SDS011;30172;48.832;8.732;2022-09-01T01:03:05;17.15;;;14.95;;
15944;SDS011;30172;48.832;8.732;2022-09-01T01:05:32;17.38;;;15.18;;
15944;SDS011;30172;48.832;8.732;2022-09-01T01:08:00;23.27;;;17.40;;
15944;SDS011;30172;48.832;8.732;2022-09-01T01:10:27;22.25;;;19.85;;
15944;SDS011;30172;48.832;8.732;2022-09-01T01:12:56;27.73;;;24.73;;
15944;SDS011;30172;48.832;8.732;2022-09-01T01:15:25;31.25;;;25.80;;
15944;SDS011;30172;48.832;8.732;2022-09-01T01:17:50;27.67;;;24.45;;
15944;SDS011;30172;48.832;8.732;2022-09-01T01:20:15;29.52;;;26.52;;
15944;SDS011;30172;48.832;8.732;2022-09-01T01:25:51;31.37;;;26.10;;
15944;SDS011;30172;48.832;8.732;2022-09-01T01:28:19;31.98;;;28.17;;
15944;SDS011;30172;48.832;8.732;2022-09-01T01:33:38;32.50;;;29.05;;
15944;SDS011;30172;48.832;8.732;2022-09-01T01:36:06;31.90;;;28.43;;
15944;SDS011;30172;48.832;8.732;2022-09-01T01:38:36;31.53;;;27.67;;
15944;SDS011;30172;48.832;8.732;2022-09-01T01:41:03;34.63;;;30.90;;
15944;SDS011;30172;48.832;8.732;2022-09-01T01:43:30;33.97;;;30.20;;
15944;SDS011;30172;48.832;8.732;2022-09-01T01:45:56;37.45;;;31.48;;
15944;SDS011;30172;48.832;8.732;2022-09-01T01:48:26;33.00;;;29.45;;
15944;SDS011;30172;48.832;8.732;2022-09-01T01:50:53;36.97;;;32.28;;
15944;SDS011;30172;48.832;8.732;2022-09-01T01:53:19;38.03;;;32.47;;
15944;SDS011;30172;48.832;8.732;2022-09-01T01:55:45;33.85;;;30.23;;
15944;SDS011;30172;48.832;8.732;2022-09-01T01:58:13;34.23;;;29.57;;
15944;SDS011;30172;48.832;8.732;2022-09-01T02:00:39;37.83;;;31.57;;
15944;SDS011;30172;48.832;8.732;2022-09-01T02:03:08;35.78;;;31.85;;
15944;SDS011;30172;48.832;8.732;2022-09-01T02:05:36;34.73;;;30.40;;
15944;SDS011;30172;48.832;8.732;2022-09-01T02:08:03;39.83;;;34.13;;
15944;SDS011;30172;48.832;8.732;2022-09-01T02:10:34;42.27;;;34.73;;
15944;SDS011;30172;48.832;8.732;2022-09-01T02:13:03;40.15;;;35.15;;
15944;SDS011;30172;48.832;8.732;2022-09-01T02:15:31;42.93;;;36.73;;
15944;SDS011;30172;48.832;8.732;2022-09-01T02:18:04;45.53;;;38.77;;
15944;SDS011;30172;48.832;8.732;2022-09-01T02:20:29;45.72;;;38.78;;
15944;SDS011;30172;48.832;8.732;2022-09-01T02:22:56;43.30;;;37.37;;
15944;SDS011;30172;48.832;8.732;2022-09-01T02:25:22;46.80;;;39.23;;
15944;SDS011;30172;48.832;8.732;2022-09-01T02:27:47;42.13;;;37.50;;
15944;SDS011;30172;48.832;8.732;2022-09-01T02:30:19;40.50;;;36.08;;
15944;SDS011;30172;48.832;8.732;2022-09-01T02:32:46;43.60;;;36.73;;
15944;SDS011;30172;48.832;8.732;2022-09-01T02:35:11;45.23;;;36.33;;
15944;SDS011;30172;48.832;8.732;2022-09-01T02:37:40;43.10;;;35.87;;
15944;SDS011;30172;48.832;8.732;2022-09-01T02:40:10;40.97;;;35.25;;
15944;SDS011;30172;48.832;8.732;2022-09-01T02:42:36;42.53;;;35.70;;
15944;SDS011;30172;48.832;8.732;2022-09-01T02:45:04;42.10;;;35.70;;
15944;SDS011;30172;48.832;8.732;2022-09-01T02:47:32;42.83;;;32.93;;
15944;SDS011;30172;48.832;8.732;2022-09-01T02:49:58;38.03;;;33.63;;
15944;SDS011;30172;48.832;8.732;2022-09-01T02:52:27;38.90;;;32.20;;
15944;SDS011;30172;48.832;8.732;2022-09-01T02:54:59;36.77;;;32.73;;
15944;SDS011;30172;48.832;8.732;2022-09-01T02:57:24;36.53;;;32.57;;
15944;SDS011;30172;48.832;8.732;2022-09-01T02:59:49;38.83;;;32.43;;
15944;SDS011;30172;48.832;8.732;2022-09-01T03:02:15;38.70;;;31.15;;
15944;SDS011;30172;48.832;8.732;2022-09-01T03:04:40;36.43;;;32.47;;
15944;SDS011;30172;48.832;8.732;2022-09-01T03:07:05;35.80;;;30.70;;
15944;SDS011;30172;48.832;8.732;2022-09-01T03:09:31;37.80;;;31.87;;
15944;SDS011;30172;48.832;8.732;2022-09-01T03:11:59;36.70;;;30.60;;
15944;SDS011;30172;48.832;8.732;2022-09-01T03:14:24;37.67;;;31.03;;
15944;SDS011;30172;48.832;8.732;2022-09-01T03:16:50;35.80;;;30.70;;
15944;SDS011;30172;48.832;8.732;2022-09-01T03:19:15;32.97;;;29.43;;
15944;SDS011;30172;48.832;8.732;2022-09-01T03:21:41;34.77;;;30.90;;
15944;SDS011;30172;48.832;8.732;2022-09-01T03:24:08;33.53;;;29.83;;
15944;SDS011;30172;48.832;8.732;2022-09-01T03:26:36;35.93;;;30.27;;
15944;SDS011;30172;48.832;8.732;2022-09-01T03:29:02;33.07;;;28.63;;
15944;SDS011;30172;48.832;8.732;2022-09-01T03:31:28;32.37;;;28.87;;
15944;SDS011;30172;48.832;8.732;2022-09-01T03:33:54;32.50;;;28.87;;
15944;SDS011;30172;48.832;8.732;2022-09-01T03:36:20;34.87;;;30.20;;
15944;SDS011;30172;48.832;8.732;2022-09-01T03:38:50;35.93;;;31.67;;
15944;SDS011;30172;48.832;8.732;2022-09-01T03:41:16;34.43;;;29.10;;
15944;SDS011;30172;48.832;8.732;2022-09-01T03:43:45;36.57;;;31.50;;
15944;SDS011;30172;48.832;8.732;2022-09-01T03:46:11;34.63;;;29.67;;
15944;SDS011;30172;48.832;8.732;2022-09-01T03:48:43;37.40;;;30.23;;
15944;SDS011;30172;48.832;8.732;2022-09-01T03:51:09;31.67;;;27.60;;
15944;SDS011;30172;48.832;8.732;2022-09-01T03:53:38;32.17;;;28.73;;
15944;SDS011;30172;48.832;8.732;2022-09-01T03:56:03;34.53;;;29.93;;
15944;SDS011;30172;48.832;8.732;2022-09-01T03:58:29;39.97;;;30.57;;
15944;SDS011;30172;48.832;8.732;2022-09-01T04:00:55;35.33;;;30.70;;
15944;SDS011;30172;48.832;8.732;2022-09-01T04:03:25;36.23;;;31.53;;
15944;SDS011;30172;48.832;8.732;2022-09-01T04:05:52;33.83;;;29.03;;
15944;SDS011;30172;48.832;8.732;2022-09-01T04:08:19;35.83;;;31.23;;
15944;SDS011;30172;48.832;8.732;2022-09-01T04:10:46;39.20;;;30.03;;
15944;SDS011;30172;48.832;8.732;2022-09-01T04:13:21;40.23;;;30.87;;
15944;SDS011;30172;48.832;8.732;2022-09-01T04:15:48;37.90;;;30.23;;
15944;SDS011;30172;48.832;8.732;2022-09-01T04:18:14;34.63;;;29.23;;
15944;SDS011;30172;48.832;8.732;2022-09-01T04:20:46;32.23;;;28.73;;
15944;SDS011;30172;48.832;8.732;2022-09-01T04:26:07;32.00;;;27.77;;
15944;SDS011;30172;48.832;8.732;2022-09-01T04:28:35;38.33;;;29.43;;
15944;SDS011;30172;48.832;8.732;2022-09-01T04:31:03;36.37;;;28.83;;
15944;SDS011;30172;48.832;8.732;2022-09-01T04:33:33;39.33;;;30.23;;
15944;SDS011;30172;48.832;8.732;2022-09-01T04:36:04;35.00;;;29.57;;
15944;SDS011;30172;48.832;8.732;2022-09-01T04:38:31;32.80;;;27.90;;
15944;SDS011;30172;48.832;8.732;2022-09-01T04:41:02;32.83;;;27.83;;
15944;SDS011;30172;48.832;8.732;2022-09-01T04:43:30;29.47;;;24.87;;
15944;SDS011;30172;48.832;8.732;2022-09-01T04:45:56;29.70;;;26.23;;
15944;SDS011;30172;48.832;8.732;2022-09-01T04:48:22;31.23;;;27.23;;
15944;SDS011;30172;48.832;8.732;2022-09-01T04:50:49;29.07;;;25.90;;
15944;SDS011;30172;48.832;8.732;2022-09-01T04:53:16;31.13;;;27.30;;
15944;SDS011;30172;48.832;8.732;2022-09-01T04:55:42;31.60;;;27.43;;
15944;SDS011;30172;48.832;8.732;2022-09-01T04:58:08;33.47;;;27.20;;
15944;SDS011;30172;48.832;8.732;2022-09-01T05:00:37;30.60;;;26.20;;
15944;SDS011;30172;48.832;8.732;2022-09-01T05:03:04;32.13;;;26.63;;
15944;SDS011;30172;48.832;8.732;2022-09-01T05:05:38;33.50;;;26.73;;
15944;SDS011;30172;48.832;8.732;2022-09-01T05:08:09;36.17;;;26.53;;
15944;SDS011;30172;48.832;8.732;2022-09-01T05:10:39;32.07;;;27.40;;
15944;SDS011;30172;48.832;8.732;2022-09-01T05:13:07;32.33;;;26.70;;
15944;SDS011;30172;48.832;8.732;2022-09-01T05:15:34;31.37;;;26.40;;
15944;SDS011;30172;48.832;8.732;2022-09-01T05:18:01;33.23;;;26.63;;
15944;SDS011;30172;48.832;8.732;2022-09-01T05:20:35;31.00;;;25.87;;
15944;SDS011;30172;48.832;8.732;2022-09-01T05:23:02;30.30;;;25.97;;
15944;SDS011;30172;48.832;8.732;2022-09-01T05:25:29;28.47;;;25.37;;
15944;SDS011;30172;48.832;8.732;2022-09-01T05:27:54;30.80;;;25.60;;
15944;SDS011;30172;48.832;8.732;2022-09-01T05:30:24;28.63;;;24.53;;
15944;SDS011;30172;48.832;8.732;2022-09-01T05:32:52;32.37;;;25.97;;
15944;SDS011;30172;48.832;8.732;2022-09-01T05:35:19;29.40;;;25.27;;
15944;SDS011;30172;48.832;8.732;2022-09-01T05:37:44;29.73;;;25.33;;
15944;SDS011;30172;48.832;8.732;2022-09-01T05:40:10;28.13;;;23.90;;
15944;SDS011;30172;48.832;8.732;2022-09-01T05:42:40;27.33;;;24.43;;
15944;SDS011;30172;48.832;8.732;2022-09-01T05:45:06;26.07;;;23.03;;
15944;SDS011;30172;48.832;8.732;2022-09-01T05:47:34;26.30;;;23.57;;
15944;SDS011;30172;48.832;8.732;2022-09-01T05:50:00;26.03;;;23.00;;
15944;SDS011;30172;48.832;8.732;2022-09-01T05:52:27;24.70;;;22.10;;
15944;SDS011;30172;48.832;8.732;2022-09-01T05:54:55;26.67;;;23.67;;
15944;SDS011;30172;48.832;8.732;2022-09-01T05:57:23;26.77;;;23.97;;
15944;SDS011;30172;48.832;8.732;2022-09-01T05:59:49;25.50;;;22.83;;
15944;SDS011;30172;48.832;8.732;2022-09-01T06:02:17;25.03;;;22.33;;
15944;SDS011;30172;48.832;8.732;2022-09-01T06:04:45;23.90;;;21.40;;
15944;SDS011;30172;48.832;8.732;2022-09-01T06:07:11;24.98;;;21.88;;
15944;SDS011;30172;48.832;8.732;2022-09-01T06:09:39;23.95;;;21.42;;
15944;SDS011;30172;48.832;8.732;2022-09-01T06:12:07;23.10;;;20.70;;
15944;SDS011;30172;48.832;8.732;2022-09-01T06:14:41;23.23;;;20.80;;
15944;SDS011;30172;48.832;8.732;2022-09-01T06:17:07;24.40;;;21.90;;
15944;SDS011;30172;48.832;8.732;2022-09-01T06:19:35;23.67;;;21.20;;
15944;SDS011;30172;48.832;8.732;2022-09-01T06:22:02;23.67;;;21.13;;
15944;SDS011;30172;48.832;8.732;2022-09-01T06:24:27;23.45;;;19.98;;
15944;SDS011;30172;48.832;8.732;2022-09-01T06:26:53;22.92;;;20.42;;
15944;SDS011;30172;48.832;8.732;2022-09-01T06:29:19;21.75;;;19.45;;
15944;SDS011;30172;48.832;8.732;2022-09-01T06:31:45;20.42;;;18.33;;
15944;SDS011;30172;48.832;8.732;2022-09-01T06:34:11;20.65;;;18.55;;
15944;SDS011;30172;48.832;8.732;2022-09-01T06:36:41;18.38;;;16.60;;
15944;SDS011;30172;48.832;8.732;2022-09-01T06:39:07;18.52;;;16.55;;
15944;SDS011;30172;48.832;8.732;2022-09-01T06:41:33;18.95;;;17.10;;
15944;SDS011;30172;48.832;8.732;2022-09-01T06:44:01;19.27;;;16.88;;
15944;SDS011;30172;48.832;8.732;2022-09-01T06:46:26;17.98;;;16.15;;
15944;SDS011;30172;48.832;8.732;2022-09-01T06:48:52;19.08;;;17.08;;
15944;SDS011;30172;48.832;8.732;2022-09-01T06:51:19;16.90;;;15.20;;
15944;SDS011;30172;48.832;8.732;2022-09-01T06:53:48;17.52;;;15.82;;
15944;SDS011;30172;48.832;8.732;2022-09-01T06:56:15;18.80;;;16.92;;
15944;SDS011;30172;48.832;8.732;2022-09-01T06:58:43;19.23;;;17.42;;
15944;SDS011;30172;48.832;8.732;2022-09-01T07:01:12;18.30;;;16.38;;
15944;SDS011;30172;48.832;8.732;2022-09-01T07:03:43;20.15;;;17.17;;
15944;SDS011;30172;48.832;8.732;2022-09-01T07:06:11;19.55;;;17.55;;
15944;SDS011;30172;48.832;8.732;2022-09-01T07:08:39;19.00;;;17.00;;
15944;SDS011;30172;48.832;8.732;2022-09-01T07:11:06;19.77;;;17.67;;
15944;SDS011;30172;48.832;8.732;2022-09-01T07:13:34;19.60;;;17.60;;
15944;SDS011;30172;48.832;8.732;2022-09-01T07:16:00;19.33;;;17.35;;
15944;SDS011;30172;48.832;8.732;2022-09-01T07:18:28;19.88;;;17.83;;
15944;SDS011;30172;48.832;8.732;2022-09-01T07:20:55;20.92;;;18.83;;
15944;SDS011;30172;48.832;8.732;2022-09-01T07:23:20;22.23;;;19.83;;
15944;SDS011;30172;48.832;8.732;2022-09-01T07:25:48;22.77;;;20.20;;
15944;SDS011;30172;48.832;8.732;2022-09-01T07:28:14;21.58;;;19.40;;
15944;SDS011;30172;48.832;8.732;2022-09-01T07:30:42;23.70;;;21.30;;
15944;SDS011;30172;48.832;8.732;2022-09-01T07:33:09;21.98;;;19.77;;
15944;SDS011;30172;48.832;8.732;2022-09-01T07:35:36;21.63;;;19.42;;
15944;SDS011;30172;48.832;8.732;2022-09-01T07:38:02;22.40;;;20.10;;
15944;SDS011;30172;48.832;8.732;2022-09-01T07:40:34;21.63;;;19.38;;
15944;SDS011;30172;48.832;8.732;2022-09-01T07:43:02;22.73;;;20.33;;
15944;SDS011;30172;48.832;8.732;2022-09-01T07:45:31;20.50;;;18.40;;
15944;SDS011;30172;48.832;8.732;2022-09-01T07:47:57;18.77;;;17.00;;
15944;SDS011;30172;48.832;8.732;2022-09-01T07:50:31;19.23;;;17.23;;
15944;SDS011;30172;48.832;8.732;2022-09-01T07:52:58;18.65;;;16.73;;
15944;SDS011;30172;48.832;8.732;2022-09-01T07:55:24;18.77;;;16.80;;
15944;SDS011;30172;48.832;8.732;2022-09-01T07:57:49;18.88;;;16.88;;
15944;SDS011;30172;48.832;8.732;2022-09-01T08:00:16;18.50;;;16.52;;
15944;SDS011;30172;48.832;8.732;2022-09-01T08:02:42;17.65;;;15.80;;
15944;SDS011;30172;48.832;8.732;2022-09-01T08:05:09;17.70;;;15.25;;
15944;SDS011;30172;48.832;8.732;2022-09-01T08:07:35;17.58;;;15.77;;
15944;SDS011;30172;48.832;8.732;2022-09-01T08:10:01;16.80;;;15.02;;
15944;SDS011;30172;48.832;8.732;2022-09-01T08:12:27;15.85;;;14.10;;
15944;SDS011;30172;48.832;8.732;2022-09-01T08:14:53;14.95;;;13.40;;
15944;SDS011;30172;48.832;8.732;2022-09-01T08:17:18;17.75;;;13.82;;
15944;SDS011;30172;48.832;8.732;2022-09-01T08:19:45;14.45;;;12.93;;
15944;SDS011;30172;48.832;8.732;2022-09-01T08:22:11;14.70;;;13.27;;
15944;SDS011;30172;48.832;8.732;2022-09-01T08:24:37;14.57;;;13.20;;
15944;SDS011;30172;48.832;8.732;2022-09-01T08:27:02;13.07;;;11.88;;
15944;SDS011;30172;48.832;8.732;2022-09-01T08:29:28;12.02;;;10.55;;
15944;SDS011;30172;48.832;8.732;2022-09-01T08:31:53;12.52;;;10.45;;
15944;SDS011;30172;48.832;8.732;2022-09-01T08:34:19;9.98;;;9.02;;
15944;SDS011;30172;48.832;8.732;2022-09-01T08:36:44;9.40;;;8.50;;
15944;SDS011;30172;48.832;8.732;2022-09-01T08:39:10;8.43;;;7.63;;
15944;SDS011;30172;48.832;8.732;2022-09-01T08:44:21;8.52;;;6.82;;
15944;SDS011;30172;48.832;8.732;2022-09-01T08:47:02;7.18;;;6.47;;
15944;SDS011;30172;48.832;8.732;2022-09-01T08:49:30;6.30;;;5.72;;
15944;SDS011;30172;48.832;8.732;2022-09-01T08:51:57;6.30;;;5.70;;
15944;SDS011;30172;48.832;8.732;2022-09-01T08:54:41;7.40;;;6.70;;
15944;SDS011;30172;48.832;8.732;2022-09-01T08:57:13;7.32;;;6.53;;
15944;SDS011;30172;48.832;8.732;2022-09-01T08:59:41;6.38;;;5.80;;
15944;SDS011;30172;48.832;8.732;2022-09-01T09:07:12;4.95;;;4.53;;
15944;SDS011;30172;48.832;8.732;2022-09-01T09:10:10;5.90;;;5.30;;
15944;SDS011;30172;48.832;8.732;2022-09-01T09:12:55;5.03;;;4.53;;
15944;SDS011;30172;48.832;8.732;2022-09-01T09:15:42;4.97;;;4.57;;
15944;SDS011;30172;48.832;8.732;2022-09-01T09:18:16;5.28;;;4.88;;
15944;SDS011;30172;48.832;8.732;2022-09-01T09:20:49;6.18;;;5.57;;
15944;SDS011;30172;48.832;8.732;2022-09-01T09:23:19;7.85;;;6.05;;
15944;SDS011;30172;48.832;8.732;2022-09-01T09:25:49;7.63;;;6.93;;
15944;SDS011;30172;48.832;8.732;2022-09-01T09:28:15;6.80;;;6.20;;
15944;SDS011;30172;48.832;8.732;2022-09-01T09:30:41;8.30;;;7.50;;
15944;SDS011;30172;48.832;8.732;2022-09-01T09:33:06;7.97;;;7.28;;
15944;SDS011;30172;48.832;8.732;2022-09-01T09:35:41;8.43;;;7.63;;
15944;SDS011;30172;48.832;8.732;2022-09-01T09:43:37;6.40;;;5.90;;
15944;SDS011;30172;48.832;8.732;2022-09-01T09:46:20;7.65;;;6.95;;
15944;SDS011;30172;48.832;8.732;2022-09-01T09:49:07;8.02;;;7.25;;
15944;SDS011;30172;48.832;8.732;2022-09-01T09:52:10;9.43;;;8.52;;
15944;SDS011;30172;48.832;8.732;2022-09-01T09:54:34;8.20;;;7.40;;
15944;SDS011;30172;48.832;8.732;2022-09-01T09:57:10;8.20;;;7.40;;
15944;SDS011;30172;48.832;8.732;2022-09-01T10:02:25;8.38;;;7.10;;
15944;SDS011;30172;48.832;8.732;2022-09-01T10:04:56;8.18;;;7.38;;
15944;SDS011;30172;48.832;8.732;2022-09-01T10:07:43;9.27;;;8.18;;
15944;SDS011;30172;48.832;8.732;2022-09-01T10:13:10;8.25;;;7.45;;
15944;SDS011;30172;48.832;8.732;2022-09-01T10:15:36;8.50;;;7.70;;
15944;SDS011;30172;48.832;8.732;2022-09-01T10:18:05;8.20;;;7.40;;
15944;SDS011;30172;48.832;8.732;2022-09-01T10:20:38;7.55;;;6.85;;
15944;SDS011;30172;48.832;8.732;2022-09-01T10:23:10;8.50;;;7.50;;
15944;SDS011;30172;48.832;8.732;2022-09-01T10:25:35;8.23;;;7.30;;
15944;SDS011;30172;48.832;8.732;2022-09-01T10:28:05;8.40;;;7.60;;
15944;SDS011;30172;48.832;8.732;2022-09-01T10:30:33;8.55;;;7.80;;
15944;SDS011;30172;48.832;8.732;2022-09-01T10:33:01;7.28;;;6.55;;
15944;SDS011;30172;48.832;8.732;2022-09-01T10:35:31;6.60;;;6.05;;
15944;SDS011;30172;48.832;8.732;2022-09-01T10:37:58;7.82;;;6.85;;
15944;SDS011;30172;48.832;8.732;2022-09-01T10:42:54;7.15;;;6.45;;
15944;SDS011;30172;48.832;8.732;2022-09-01T10:45:33;7.78;;;6.95;;
15944;SDS011;30172;48.832;8.732;2022-09-01T10:50:44;8.02;;;7.32;;
15944;SDS011;30172;48.832;8.732;2022-09-01T10:53:36;8.85;;;7.95;;
15944;SDS011;30172;48.832;8.732;2022-09-01T10:56:01;7.38;;;6.63;;
15944;SDS011;30172;48.832;8.732;2022-09-01T11:04:09;6.68;;;6.07;;
15944;SDS011;30172;48.832;8.732;2022-09-01T11:06:53;5.93;;;5.38;;
15944;SDS011;30172;48.832;8.732;2022-09-01T11:12:07;6.80;;;6.10;;
15944;SDS011;30172;48.832;8.732;2022-09-01T11:14:49;7.18;;;6.53;;
15944;SDS011;30172;48.832;8.732;2022-09-01T11:17:17;7.22;;;6.35;;
15944;SDS011;30172;48.832;8.732;2022-09-01T11:22:25;7.90;;;6.65;;
15944;SDS011;30172;48.832;8.732;2022-09-01T11:25:11;6.95;;;6.25;;
15944;SDS011;30172;48.832;8.732;2022-09-01T11:28:44;9.18;;;5.85;;
15944;SDS011;30172;48.832;8.732;2022-09-01T11:36:01;6.90;;;6.20;;
15944;SDS011;30172;48.832;8.732;2022-09-01T11:38:31;5.82;;;5.32;;
15944;SDS011;30172;48.832;8.732;2022-09-01T11:41:02;5.75;;;5.13;;
15944;SDS011;30172;48.832;8.732;2022-09-01T11:43:27;5.68;;;5.18;;
15944;SDS011;30172;48.832;8.732;2022-09-01T11:46:15;5.53;;;5.10;;
15944;SDS011;30172;48.832;8.732;2022-09-01T11:48:50;5.55;;;5.00;;
15944;SDS011;30172;48.832;8.732;2022-09-01T11:51:15;5.90;;;5.40;;
15944;SDS011;30172;48.832;8.732;2022-09-01T11:53:41;6.45;;;5.20;;
15944;SDS011;30172;48.832;8.732;2022-09-01T11:56:14;5.30;;;4.90;;
15944;SDS011;30172;48.832;8.732;2022-09-01T11:58:42;5.53;;;5.05;;
15944;SDS011;30172;48.832;8.732;2022-09-01T12:01:22;5.75;;;5.18;;
15944;SDS011;30172;48.832;8.732;2022-09-01T12:04:16;5.78;;;5.28;;
15944;SDS011;30172;48.832;8.732;2022-09-01T12:06:49;5.85;;;5.35;;
15944;SDS011;30172;48.832;8.732;2022-09-01T12:09:20;6.20;;;5.70;;
15944;SDS011;30172;48.832;8.732;2022-09-01T12:11:45;5.60;;;5.10;;
15944;SDS011;30172;48.832;8.732;2022-09-01T12:14:17;5.70;;;5.20;;
15944;SDS011;30172;48.832;8.732;2022-09-01T12:16:44;5.82;;;5.22;;
15944;SDS011;30172;48.832;8.732;2022-09-01T12:19:25;5.68;;;5.18;;
15944;SDS011;30172;48.832;8.732;2022-09-01T12:24:38;5.80;;;4.75;;
15944;SDS011;30172;48.832;8.732;2022-09-01T12:27:09;4.55;;;4.13;;
15944;SDS011;30172;48.832;8.732;2022-09-01T12:29:36;4.68;;;4.28;;
15944;SDS011;30172;48.832;8.732;2022-09-01T12:32:02;4.07;;;3.78;;
15944;SDS011;30172;48.832;8.732;2022-09-01T12:37:07;3.80;;;3.50;;
15944;SDS011;30172;48.832;8.732;2022-09-01T12:39:38;5.00;;;3.95;;
15944;SDS011;30172;48.832;8.732;2022-09-01T12:42:21;3.90;;;3.60;;
15944;SDS011;30172;48.832;8.732;2022-09-01T12:52:53;3.95;;;3.65;;
15944;SDS011;30172;48.832;8.732;2022-09-01T12:55:21;3.67;;;3.38;;
15944;SDS011;30172;48.832;8.732;2022-09-01T12:57:53;3.30;;;3.00;;
15944;SDS011;30172;48.832;8.732;2022-09-01T13:02:48;3.55;;;3.25;;
15944;SDS011;30172;48.832;8.732;2022-09-01T13:05:27;3.92;;;3.63;;
15944;SDS011;30172;48.832;8.732;2022-09-01T13:08:19;4.50;;;3.95;;
15944;SDS011;30172;48.832;8.732;2022-09-01T13:10:45;4.20;;;3.80;;
15944;SDS011;30172;48.832;8.732;2022-09-01T13:13:12;5.20;;;4.40;;
15944;SDS011;30172;48.832;8.732;2022-09-01T13:15:40;4.25;;;3.85;;
15944;SDS011;30172;48.832;8.732;2022-09-01T13:18:08;4.00;;;3.60;;
15944;SDS011;30172;48.832;8.732;2022-09-01T13:20:33;4.07;;;3.78;;
15944;SDS011;30172;48.832;8.732;2022-09-01T13:22:59;3.45;;;3.20;;
15944;SDS011;30172;48.832;8.732;2022-09-01T13:25:24;3.90;;;3.42;;
15944;SDS011;30172;48.832;8.732;2022-09-01T13:27:49;3.65;;;3.35;;
15944;SDS011;30172;48.832;8.732;2022-09-01T13:30:17;3.10;;;2.90;;
15944;SDS011;30172;48.832;8.732;2022-09-01T13:32:45;3.80;;;3.08;;
15944;SDS011;30172;48.832;8.732;2022-09-01T13:35:15;3.72;;;3.50;;
15944;SDS011;30172;48.832;8.732;2022-09-01T13:37:46;2.83;;;2.63;;
15944;SDS011;30172;48.832;8.732;2022-09-01T13:40:14;3.20;;;2.92;;
15944;SDS011;30172;48.832;8.732;2022-09-01T13:42:41;3.80;;;3.50;;
15944;SDS011;30172;48.832;8.732;2022-09-01T13:45:08;4.53;;;2.88;;
15944;SDS011;30172;48.832;8.732;2022-09-01T13:47:35;3.50;;;3.20;;
15944;SDS011;30172;48.832;8.732;2022-09-01T13:50:00;3.83;;;3.47;;
15944;SDS011;30172;48.832;8.732;2022-09-01T13:52:25;3.78;;;3.25;;
15944;SDS011;30172;48.832;8.732;2022-09-01T13:54:51;4.78;;;4.00;;
15944;SDS011;30172;48.832;8.732;2022-09-01T13:57:16;3.67;;;3.38;;
15944;SDS011;30172;48.832;8.732;2022-09-01T13:59:42;4.10;;;3.78;;
15944;SDS011;30172;48.832;8.732;2022-09-01T14:02:07;4.00;;;3.60;;
15944;SDS011;30172;48.832;8.732;2022-09-01T14:04:33;4.45;;;3.38;;
15944;SDS011;30172;48.832;8.732;2022-09-01T14:06:59;3.70;;;3.40;;
15944;SDS011;30172;48.832;8.732;2022-09-01T14:09:24;3.53;;;3.22;;
15944;SDS011;30172;48.832;8.732;2022-09-01T14:11:53;4.15;;;3.22;;
15944;SDS011;30172;48.832;8.732;2022-09-01T14:14:19;4.15;;;3.40;;
15944;SDS011;30172;48.832;8.732;2022-09-01T14:16:45;3.42;;;3.13;;
15944;SDS011;30172;48.832;8.732;2022-09-01T14:19:10;3.40;;;3.10;;
15944;SDS011;30172;48.832;8.732;2022-09-01T14:21:36;3.13;;;2.90;;
15944;SDS011;30172;48.832;8.732;2022-09-01T14:24:02;3.65;;;3.35;;
15944;SDS011;30172;48.832;8.732;2022-09-01T14:26:28;5.53;;;3.90;;
15944;SDS011;30172;48.832;8.732;2022-09-01T14:28:53;4.15;;;3.40;;
15944;SDS011;30172;48.832;8.732;2022-09-01T14:31:19;4.13;;;3.45;;
15944;SDS011;30172;48.832;8.732;2022-09-01T14:33:45;3.50;;;3.20;;
15944;SDS011;30172;48.832;8.732;2022-09-01T14:36:24;5.15;;;3.60;;
15944;SDS011;30172;48.832;8.732;2022-09-01T14:38:51;3.83;;;3.55;;
15944;SDS011;30172;48.832;8.732;2022-09-01T14:41:17;4.72;;;3.38;;
15944;SDS011;30172;48.832;8.732;2022-09-01T14:43:45;3.20;;;3.00;;
15944;SDS011;30172;48.832;8.732;2022-09-01T14:46:11;3.10;;;2.83;;
15944;SDS011;30172;48.832;8.732;2022-09-01T14:48:39;3.50;;;3.08;;
15944;SDS011;30172;48.832;8.732;2022-09-01T14:51:06;3.05;;;2.80;;
15944;SDS011;30172;48.832;8.732;2022-09-01T14:53:31;3.33;;;3.03;;
15944;SDS011;30172;48.832;8.732;2022-09-01T14:55:58;4.10;;;3.20;;
15944;SDS011;30172;48.832;8.732;2022-09-01T14:58:24;4.25;;;3.58;;
15944;SDS011;30172;48.832;8.732;2022-09-01T15:00:51;3.55;;;2.92;;
15944;SDS011;30172;48.832;8.732;2022-09-01T15:03:16;3.08;;;2.88;;
15944;SDS011;30172;48.832;8.732;2022-09-01T15:05:42;2.75;;;2.53;;
15944;SDS011;30172;48.832;8.732;2022-09-01T15:08:08;3.00;;;2.67;;
15944;SDS011;30172;48.832;8.732;2022-09-01T15:10:34;3.20;;;3.00;;
15944;SDS011;30172;48.832;8.732;2022-09-01T15:13:00;3.78;;;3.42;;
15944;SDS011;30172;48.832;8.732;2022-09-01T15:15:26;3.30;;;3.00;;
15944;SDS011;30172;48.832;8.732;2022-09-01T15:17:53;4.10;;;3.45;;
15944;SDS011;30172;48.832;8.732;2022-09-01T15:20:19;3.40;;;3.20;;
15944;SDS011;30172;48.832;8.732;2022-09-01T15:23:03;4.82;;;3.50;;
15944;SDS011;30172;48.832;8.732;2022-09-01T15:25:29;4.18;;;3.60;;
15944;SDS011;30172;48.832;8.732;2022-09-01T15:27:54;3.60;;;3.30;;
15944;SDS011;30172;48.832;8.732;2022-09-01T15:30:20;3.45;;;3.20;;
15944;SDS011;30172;48.832;8.732;2022-09-01T15:32:46;3.67;;;3.13;;
15944;SDS011;30172;48.832;8.732;2022-09-01T15:35:13;3.22;;;3.03;;
15944;SDS011;30172;48.832;8.732;2022-09-01T15:37:39;3.95;;;3.25;;
15944;SDS011;30172;48.832;8.732;2022-09-01T15:40:05;3.20;;;3.00;;
15944;SDS011;30172;48.832;8.732;2022-09-01T15:42:32;2.85;;;2.65;;
15944;SDS011;30172;48.832;8.732;2022-09-01T15:44:59;3.00;;;2.80;;
15944;SDS011;30172;48.832;8.732;2022-09-01T15:47:25;3.30;;;3.00;;
15944;SDS011;30172;48.832;8.732;2022-09-01T15:49:51;3.60;;;3.33;;